Time;durP1;ratioP1;P1;durP2;ratioP2;P2;SDS_P1;SDS_P2;PMS_P1;PMS_P2;Temp;Humidity;BMP_temperature;BMP_pressure;BME280_temperature;BME280_humidity;BME280_pressure;Samples;Min_cycle;Max_cycle;Signal;HPM_P1;HPM_P2
2022/02/22 00:01:41;;;;;;;10.00;8.95;;;;;;;10.63;59.54;98153.28;4974042;28;20058;-90
2022/02/22 00:04:07;;;;;;;13.57;10.60;;;;;;;12.39;59.91;98431.66;4959337;28;20030;-90
2022/02/22 00:06:33;;;;;;;13.18;10.52;;;;;;;12.21;59.82;98403.28;4955941;28;20026;-90
2022/02/22 00:08:59;;;;;;;11.02;9.05;;;;;;;12.14;59.95;98389.31;4956049;28;20187;-91
2022/02/22 00:11:25;;;;;;;13.55;8.23;;;;;;;12.43;59.84;98430.19;4957539;28;20491;-90
2022/02/22 00:13:51;;;;;;;8.80;7.80;;;;;;;12.49;60.05;98439.09;4956271;28;20119;-91
2022/02/22 00:16:16;;;;;;;9.90;7.88;;;;;;;12.01;59.86;98350.53;4979282;28;20019;-88
2022/02/22 00:18:42;;;;;;;9.13;8.23;;;;;;;12.61;59.86;98447.94;4982327;28;20038;-88
2022/02/22 00:21:08;;;;;;;9.65;8.68;;;;;;;12.59;59.95;98420.88;4988272;28;20041;-90
2022/02/22 00:23:34;;;;;;;11.10;8.02;;;;;;;12.35;59.92;98380.97;4968952;28;20026;-90
2022/02/22 00:25:59;;;;;;;9.57;8.55;;;;;;;12.43;59.73;98410.84;4965462;28;20030;-90
2022/02/22 00:28:25;;;;;;;11.43;8.05;;;;;;;12.67;59.96;98433.88;4963073;28;20541;-90
2022/02/22 00:30:51;;;;;;;10.98;9.35;;;;;;;12.35;59.67;98370.38;4973152;28;20491;-90
2022/02/22 00:33:17;;;;;;;12.25;9.38;;;;;;;12.70;59.99;98421.00;4956740;28;20030;-90
2022/02/22 00:35:43;;;;;;;9.50;7.70;;;;;;;11.99;59.63;98318.22;4955891;28;20117;-90
2022/02/22 00:38:08;;;;;;;9.15;8.25;;;;;;;11.66;59.58;98251.50;4957113;28;20039;-90
2022/02/22 00:40:34;;;;;;;11.60;9.10;;;;;;;12.21;59.89;98331.84;4955490;28;20435;-90
2022/02/22 00:43:00;;;;;;;11.60;9.20;;;;;;;12.27;60.09;98353.97;4955378;28;20495;-90
2022/02/22 00:45:26;;;;;;;11.70;9.45;;;;;;;12.19;59.75;98325.97;4957792;28;20022;-90
2022/02/22 00:47:52;;;;;;;11.38;9.13;;;;;;;12.87;59.74;98428.38;4955691;28;20034;-91
2022/02/22 00:50:17;;;;;;;11.68;7.72;;;;;;;12.12;59.65;98311.97;4955460;28;20107;-90
2022/02/22 00:52:43;;;;;;;10.27;7.20;;;;;;;12.84;60.01;98421.66;4956881;28;20042;-90
2022/02/22 00:55:09;;;;;;;8.20;7.38;;;;;;;12.24;59.73;98334.06;4955357;28;20029;-90
2022/02/22 00:57:36;;;;;;;8.02;6.75;;;;;;;12.35;59.54;98330.69;4955114;28;20129;-90
2022/02/22 01:00:06;;;;;;;10.88;6.70;;;;;;;12.37;59.51;98347.16;4976006;28;20025;-90
2022/02/22 01:02:31;;;;;;;7.38;6.55;;;;;;;12.54;59.21;98357.97;4955205;28;20031;-90
2022/02/22 01:04:57;;;;;;;7.22;5.82;;;;;;;12.32;59.40;98339.06;4955394;28;20025;-90
2022/02/22 01:07:22;;;;;;;7.90;5.75;;;;;;;12.81;59.50;98378.91;4955926;28;20023;-90
2022/02/22 01:09:48;;;;;;;7.60;6.80;;;;;;;11.50;59.07;98209.75;4972595;28;20027;-90
2022/02/22 01:12:16;;;;;;;8.52;6.35;;;;;;;12.58;59.08;98343.28;4955330;28;20027;-90
2022/02/22 01:14:45;;;;;;;7.60;6.68;;;;;;;12.93;59.29;98398.34;4956934;28;20038;-91
2022/02/22 01:17:11;;;;;;;7.45;6.20;;;;;;;12.61;59.04;98361.38;4955275;28;20112;-90
2022/02/22 01:19:36;;;;;;;11.10;7.13;;;;;;;12.37;59.27;98322.53;4955425;28;20520;-91
2022/02/22 01:22:02;;;;;;;8.90;6.65;;;;;;;12.13;59.01;98308.31;4957723;28;20046;-90
2022/02/22 01:24:28;;;;;;;9.80;8.32;;;;;;;12.13;58.97;98265.16;4975944;28;20057;-90
2022/02/22 01:26:53;;;;;;;8.15;7.07;;;;;;;12.32;59.04;98314.44;4958554;28;20034;-90
2022/02/22 01:29:19;;;;;;;8.15;7.22;;;;;;;12.51;58.86;98342.53;4976870;28;20169;-90
2022/02/22 01:31:45;;;;;;;7.90;7.05;;;;;;;12.25;58.92;98292.53;4975611;28;20027;-89
2022/02/22 01:34:11;;;;;;;8.40;7.50;;;;;;;12.75;59.41;98377.97;4958120;28;20062;-90
2022/02/22 01:36:36;;;;;;;10.15;7.70;;;;;;;12.47;59.43;98343.19;4976431;28;20031;-90
2022/02/22 01:39:03;;;;;;;7.38;6.65;;;;;;;12.39;59.30;98331.88;4958265;28;20037;-90
2022/02/22 01:41:29;;;;;;;9.45;8.00;;;;;;;12.08;59.44;98297.56;4957788;28;20035;-90
2022/02/22 01:43:55;;;;;;;10.52;7.32;;;;;;;12.47;59.66;98382.91;4959506;28;20138;-89
2022/02/22 01:46:20;;;;;;;10.32;8.15;;;;;;;11.49;59.88;98213.44;4958284;28;20095;-90
2022/02/22 01:48:45;;;;;;;10.35;8.45;;;;;;;12.06;60.09;98350.69;4975702;28;20030;-90
2022/02/22 01:51:11;;;;;;;7.38;6.68;;;;;;;11.01;59.85;98183.06;4958133;28;20027;-90
2022/02/22 01:53:36;;;;;;;9.55;7.07;;;;;;;12.11;60.28;98342.13;4960960;28;20481;-90
2022/02/22 01:56:03;;;;;;;8.35;6.97;;;;;;;11.78;59.74;98290.28;4958023;28;20045;-90
2022/02/22 01:58:29;;;;;;;9.18;7.20;;;;;;;12.14;60.06;98340.88;4958103;28;20019;-90
2022/02/22 02:00:55;;;;;;;10.00;7.63;;;;;;;11.84;60.19;98317.69;4958954;28;20033;-90
2022/02/22 02:03:21;;;;;;;9.90;7.72;;;;;;;11.23;59.59;98177.47;4975679;28;20027;-91
2022/02/22 02:05:46;;;;;;;11.80;8.00;;;;;;;12.08;59.70;98346.00;4958105;28;20031;-90
2022/02/22 02:08:13;;;;;;;8.80;7.78;;;;;;;12.07;59.65;98320.56;4959368;28;20511;-90
2022/02/22 02:10:38;;;;;;;10.07;8.82;;;;;;;11.76;60.24;98291.50;4957939;28;20054;-90
2022/02/22 02:13:04;;;;;;;14.75;10.05;;;;;;;11.92;60.46;98333.31;4957971;28;20433;-90
2022/02/22 02:15:30;;;;;;;16.25;12.68;;;;;;;12.21;60.54;98376.81;4959754;28;20568;-90
2022/02/22 02:17:55;;;;;;;22.38;15.00;;;;;;;11.52;60.33;98265.84;4957820;28;20067;-91
2022/02/22 02:20:22;;;;;;;17.40;12.32;;;;;;;12.12;60.73;98367.53;4958445;28;20126;-89
2022/02/22 02:22:47;;;;;;;16.50;12.07;;;;;;;11.63;60.70;98294.25;4959499;28;20090;-90
2022/02/22 02:25:13;;;;;;;17.02;12.13;;;;;;;11.81;60.69;98336.63;4957919;28;20027;-90
2022/02/22 02:27:39;;;;;;;15.90;12.20;;;;;;;11.76;60.65;98328.50;4957584;28;20511;-90
2022/02/22 02:30:07;;;;;;;16.58;12.88;;;;;;;12.04;60.19;98367.81;4958432;28;20562;-90
2022/02/22 02:32:33;;;;;;;16.20;12.68;;;;;;;12.00;60.37;98369.28;4973966;28;20037;-90
2022/02/22 02:34:58;;;;;;;17.40;13.48;;;;;;;11.28;60.48;98264.81;4957027;28;20102;-90
2022/02/22 02:37:24;;;;;;;14.20;12.07;;;;;;;11.57;60.79;98330.28;4959635;28;20050;-90
2022/02/22 02:39:50;;;;;;;13.43;11.98;;;;;;;11.73;60.48;98350.09;4957460;28;20054;-90
2022/02/22 02:42:17;;;;;;;15.23;11.48;;;;;;;11.13;60.76;98280.94;4956897;28;20045;-90
2022/02/22 02:44:47;;;;;;;16.27;13.73;;;;;;;11.83;60.70;98368.16;4958459;28;20030;-91
2022/02/22 02:47:14;;;;;;;14.77;12.70;;;;;;;11.43;60.76;98326.09;4957411;28;20049;-91
2022/02/22 02:49:41;;;;;;;17.27;12.85;;;;;;;11.76;61.62;98368.16;4957433;28;20058;-90
2022/02/22 02:52:07;;;;;;;18.27;11.75;;;;;;;11.02;61.01;98266.56;4958748;28;20504;-90
2022/02/22 02:54:34;;;;;;;14.63;11.13;;;;;;;11.12;61.27;98271.38;4957158;28;20037;-90
2022/02/22 02:56:59;;;;;;;11.35;8.30;;;;;;;11.34;61.33;98322.09;4957369;28;20034;-90
2022/02/22 02:59:25;;;;;;;8.55;6.75;;;;;;;11.64;60.58;98357.47;4958607;28;20030;-90
2022/02/22 03:01:50;;;;;;;8.10;6.95;;;;;;;10.47;60.42;98183.59;4957652;28;20027;-92
2022/02/22 03:04:19;;;;;;;9.25;7.68;;;;;;;11.23;60.45;98310.38;4957462;28;20106;-91
2022/02/22 03:06:45;;;;;;;7.95;6.68;;;;;;;10.40;60.87;98186.28;4957838;28;20023;-91
2022/02/22 03:09:11;;;;;;;8.23;6.78;;;;;;;11.83;60.21;98368.16;4957449;28;20062;-90
2022/02/22 03:11:37;;;;;;;11.35;9.38;;;;;;;11.65;60.16;98339.78;4956872;28;20022;-92
2022/02/22 03:14:03;;;;;;;10.32;8.57;;;;;;;11.27;60.74;98297.53;4973753;28;20034;-92
2022/02/22 03:16:28;;;;;;;11.38;9.48;;;;;;;11.36;60.63;98312.13;4958621;28;20476;-92
2022/02/22 03:18:54;;;;;;;11.65;9.63;;;;;;;11.22;60.48;98295.53;4956384;28;20109;-90
2022/02/22 03:21:19;;;;;;;13.68;10.55;;;;;;;11.52;60.45;98345.16;4956247;28;20035;-92
2022/02/22 03:23:45;;;;;;;10.50;9.15;;;;;;;11.46;60.67;98344.97;4975332;28;20033;-91
2022/02/22 03:26:11;;;;;;;14.02;10.00;;;;;;;10.90;60.78;98255.06;4956653;28;20479;-94
2022/02/22 03:28:36;;;;;;;13.52;11.68;;;;;;;11.36;60.59;98330.63;4956621;28;20026;-91
2022/02/22 03:31:03;;;;;;;23.25;16.50;;;;;;;11.42;61.15;98350.91;4975158;28;20089;-93
2022/02/22 03:33:30;;;;;;;22.45;18.85;;;;;;;11.55;60.28;98385.19;4956410;28;20026;-93
2022/02/22 03:35:55;;;;;;;17.98;13.23;;;;;;;11.36;61.02;98360.50;4973564;28;20042;-93
2022/02/22 03:38:21;;;;;;;15.70;12.52;;;;;;;11.28;60.98;98367.84;4957629;28;20034;-93
2022/02/22 03:40:47;;;;;;;19.63;16.17;;;;;;;11.01;61.07;98336.25;4956425;28;20125;-93
2022/02/22 03:43:12;;;;;;;23.25;16.50;;;;;;;11.19;61.37;98385.78;4956624;28;20111;-92
2022/02/22 03:45:38;;;;;;;25.52;20.10;;;;;;;10.73;61.02;98317.28;4956884;28;20061;-93
2022/02/22 03:48:04;;;;;;;18.52;15.98;;;;;;;10.82;61.37;98360.91;4956628;28;20101;-93
2022/02/22 03:50:30;;;;;;;22.42;16.30;;;;;;;10.85;61.51;98354.41;4956530;28;20031;-93
2022/02/22 03:52:55;;;;;;;20.48;16.25;;;;;;;10.95;61.49;98383.81;4959487;28;20030;-92
2022/02/22 03:55:22;;;;;;;25.25;18.58;;;;;;;10.78;61.24;98339.41;4956202;28;20093;-93
2022/02/22 03:57:48;;;;;;;20.23;16.92;;;;;;;11.10;61.34;98400.22;4956811;28;20440;-93
2022/02/22 04:00:20;;;;;;;22.77;19.63;;;;;;;11.05;61.47;98392.13;4957616;28;20038;-93
2022/02/22 04:02:46;;;;;;;26.13;20.13;;;;;;;10.68;61.80;98343.50;4957019;28;20034;-93
2022/02/22 04:05:13;;;;;;;27.70;22.60;;;;;;;11.00;61.86;98391.94;4957359;28;20523;-92
2022/02/22 04:07:38;;;;;;;28.13;23.48;;;;;;;10.49;61.74;98326.69;4956980;28;20034;-93
2022/02/22 04:10:06;;;;;;;26.23;23.10;;;;;;;10.64;61.40;98344.94;4957571;28;20456;-93
2022/02/22 04:12:32;;;;;;;30.42;24.17;;;;;;;10.94;62.42;98390.94;4956444;28;20030;-93
2022/02/22 04:14:58;;;;;;;30.25;25.23;;;;;;;10.46;62.40;98369.34;4955997;28;20033;-93
2022/02/22 04:17:23;;;;;;;29.00;25.20;;;;;;;10.78;61.75;98386.09;4956925;28;20041;-93
2022/02/22 04:19:49;;;;;;;32.40;25.08;;;;;;;10.39;62.35;98328.94;4956073;28;20027;-92
2022/02/22 04:22:16;;;;;;;32.90;26.35;;;;;;;9.83;62.10;98279.28;4955850;28;20046;-93
2022/02/22 04:24:42;;;;;;;32.15;26.25;;;;;;;10.42;62.50;98371.56;4956671;28;20027;-92
2022/02/22 04:27:08;;;;;;;32.08;26.42;;;;;;;10.31;62.60;98343.16;4975337;28;20039;-92
2022/02/22 04:29:33;;;;;;;31.40;23.55;;;;;;;10.03;62.43;98332.81;4955652;28;20067;-92
2022/02/22 04:32:00;;;;;;;30.67;24.58;;;;;;;10.09;62.52;98347.81;4957287;28;20023;-92
2022/02/22 04:34:26;;;;;;;31.40;25.27;;;;;;;10.06;62.79;98340.31;4956200;28;20113;-93
2022/02/22 04:36:51;;;;;;;32.80;26.13;;;;;;;8.97;62.84;98207.28;4956130;28;20496;-93
2022/02/22 04:39:17;;;;;;;30.55;25.27;;;;;;;9.71;62.60;98308.06;4956775;28;20412;-93
2022/02/22 04:41:42;;;;;;;31.85;26.70;;;;;;;9.56;62.75;98302.16;4956579;28;20110;-92
2022/02/22 04:44:08;;;;;;;29.30;24.67;;;;;;;9.92;62.91;98351.06;4956667;28;20022;-92
2022/02/22 04:46:33;;;;;;;32.80;27.45;;;;;;;9.81;63.17;98347.22;4957370;28;20026;-93
2022/02/22 04:48:59;;;;;;;33.30;25.08;;;;;;;10.18;63.20;98404.63;4979307;28;20011;-92
2022/02/22 04:51:25;;;;;;;32.88;28.00;;;;;;;9.94;63.08;98394.66;4981865;28;20031;-92
2022/02/22 04:53:50;;;;;;;35.55;31.45;;;;;;;9.40;63.17;98308.63;4972106;28;20065;-93
2022/02/22 04:56:16;;;;;;;33.30;26.05;;;;;;;9.98;63.42;98409.06;4968586;28;20123;-93
2022/02/22 04:58:42;;;;;;;32.63;28.17;;;;;;;9.82;63.31;98405.00;4962456;28;20018;-93
2022/02/22 05:01:08;;;;;;;41.90;30.20;;;;;;;9.86;63.60;98392.22;4962581;28;20031;-93
2022/02/22 05:03:33;;;;;;;37.78;30.40;;;;;;;9.95;63.12;98404.19;4958834;28;20365;-92
2022/02/22 05:05:59;;;;;;;36.10;29.13;;;;;;;8.58;63.28;98187.75;4959231;28;20034;-93
2022/02/22 05:08:24;;;;;;;39.00;30.42;;;;;;;9.29;63.53;98298.69;4959365;28;20034;-93
2022/02/22 05:10:50;;;;;;;43.03;30.77;;;;;;;9.77;63.08;98401.34;4977733;28;20031;-93
2022/02/22 05:13:15;;;;;;;39.95;31.40;;;;;;;9.53;63.07;98358.72;4959074;28;20027;-93
2022/02/22 05:15:41;;;;;;;39.65;31.80;;;;;;;9.13;63.00;98297.22;4959090;28;20029;-93
2022/02/22 05:18:07;;;;;;;44.25;33.88;;;;;;;9.86;63.14;98414.13;4959498;28;20027;-94
2022/02/22 05:20:32;;;;;;;50.13;40.17;;;;;;;9.30;62.79;98333.72;4959339;28;20037;-93
2022/02/22 05:22:59;;;;;;;49.10;38.78;;;;;;;9.68;63.20;98424.44;4958910;28;20377;-93
2022/02/22 05:25:24;;;;;;;47.63;39.33;;;;;;;9.76;63.30;98440.06;4960509;28;20042;-93
2022/02/22 05:27:50;;;;;;;40.70;34.13;;;;;;;8.27;63.46;98212.69;4959024;28;20030;-93
2022/02/22 05:30:17;;;;;;;41.03;33.70;;;;;;;8.71;63.29;98285.13;4958722;28;20037;-93
2022/02/22 05:32:44;;;;;;;38.63;30.90;;;;;;;9.67;63.35;98432.56;4958996;28;20046;-93
2022/02/22 05:35:11;;;;;;;38.38;32.25;;;;;;;8.87;63.30;98331.34;4962231;28;20507;-93
2022/02/22 05:37:36;;;;;;;43.83;36.00;;;;;;;8.69;63.09;98305.56;4959034;28;20122;-92
2022/02/22 05:40:04;;;;;;;44.47;37.00;;;;;;;8.71;63.08;98318.53;4958972;28;20045;-93
2022/02/22 05:42:30;;;;;;;46.13;33.90;;;;;;;8.80;63.48;98310.28;4958806;28;20401;-93
2022/02/22 05:44:56;;;;;;;48.72;37.88;;;;;;;9.09;63.68;98361.84;4959249;28;20031;-93
2022/02/22 05:47:22;;;;;;;49.50;37.50;;;;;;;9.33;63.67;98396.56;4976905;28;20030;-93
2022/02/22 05:49:48;;;;;;;50.33;38.38;;;;;;;9.55;63.71;98435.72;4959046;28;20031;-93
2022/02/22 05:52:14;;;;;;;59.40;43.30;;;;;;;9.35;63.80;98410.34;4959178;28;20400;-93
2022/02/22 05:54:40;;;;;;;54.60;38.13;;;;;;;9.00;64.01;98349.03;4958906;28;20062;-93
2022/02/22 05:57:06;;;;;;;50.35;40.53;;;;;;;9.14;63.61;98354.16;4958982;28;20034;-92
2022/02/22 05:59:32;;;;;;;53.20;41.20;;;;;;;9.00;63.68;98338.50;4962056;28;20061;-92
2022/02/22 06:01:57;;;;;;;49.47;38.47;;;;;;;9.77;63.67;98435.59;4975686;28;20030;-92
2022/02/22 06:04:24;;;;;;;49.08;40.28;;;;;;;9.84;63.78;98441.72;4958248;28;20031;-94
2022/02/22 06:06:50;;;;;;;49.38;39.45;;;;;;;9.55;63.49;98396.22;4975235;28;20038;-90
2022/02/22 06:09:15;;;;;;;48.83;39.20;;;;;;;9.69;63.40;98404.16;4958225;28;20027;-92
2022/02/22 06:11:42;;;;;;;46.25;36.85;;;;;;;9.78;63.69;98434.59;4958246;28;20031;-91
2022/02/22 06:14:07;;;;;;;40.38;33.30;;;;;;;9.40;63.06;98363.94;4959967;28;20506;-90
2022/02/22 06:16:33;;;;;;;44.53;35.00;;;;;;;9.51;63.39;98386.25;4959037;28;20031;-92
2022/02/22 06:18:58;;;;;;;40.03;31.25;;;;;;;9.94;63.41;98462.41;4956571;28;20089;-91
2022/02/22 06:21:24;;;;;;;44.20;35.72;;;;;;;9.77;63.44;98439.06;4957942;28;20165;-92
2022/02/22 06:23:49;;;;;;;45.38;35.13;;;;;;;9.36;63.68;98373.25;4958314;28;20023;-91
2022/02/22 06:26:15;;;;;;;44.53;35.08;;;;;;;9.82;63.13;98426.09;4956617;28;20512;-91
2022/02/22 06:28:43;;;;;;;41.72;33.40;;;;;;;9.69;63.26;98388.34;4958160;28;20027;-91
2022/02/22 06:31:09;;;;;;;43.85;34.30;;;;;;;9.30;63.43;98323.19;4972091;28;20075;-91
2022/02/22 06:33:34;;;;;;;42.80;34.45;;;;;;;10.09;63.57;98442.75;4938998;29;20493;-92
2022/02/22 06:36:00;;;;;;;49.75;35.03;;;;;;;9.94;63.17;98421.03;4941716;29;20034;-92
2022/02/22 06:38:26;;;;;;;46.70;33.33;;;;;;;10.19;63.40;98451.06;4939847;29;20050;-91
2022/02/22 06:40:52;;;;;;;43.72;35.53;;;;;;;10.10;63.29;98460.19;4938824;29;20023;-91
2022/02/22 06:43:17;;;;;;;47.42;37.90;;;;;;;9.62;63.42;98363.78;4937797;29;20034;-91
2022/02/22 06:45:43;;;;;;;48.03;36.10;;;;;;;9.61;63.35;98373.50;4938248;29;20018;-90
2022/02/22 06:48:11;;;;;;;44.33;36.13;;;;;;;9.60;62.91;98357.91;4972416;28;20019;-91
2022/02/22 06:50:37;;;;;;;46.70;35.97;;;;;;;9.71;63.07;98381.06;4947089;28;20033;-92
2022/02/22 06:53:03;;;;;;;41.88;34.00;;;;;;;10.30;63.56;98480.53;4954214;28;20026;-90
2022/02/22 06:55:28;;;;;;;45.05;35.15;;;;;;;9.62;63.50;98403.31;4953975;28;20037;-90
2022/02/22 06:57:59;;;;;;;40.65;33.40;;;;;;;10.25;64.29;98477.69;4956184;28;20107;-91
2022/02/22 07:00:25;;;;;;;41.40;32.77;;;;;;;9.35;64.04;98363.72;4955028;28;20033;-91
2022/02/22 07:02:50;;;;;;;48.28;38.67;;;;;;;9.81;64.42;98463.19;4957503;28;20266;-90
2022/02/22 07:05:18;;;;;;;43.53;35.08;;;;;;;9.22;64.50;98376.88;4952770;29;20106;-91
2022/02/22 07:07:44;;;;;;;35.75;29.75;;;;;;;10.23;64.90;98506.09;4948105;28;20030;-90
2022/02/22 07:10:10;;;;;;;44.28;35.00;;;;;;;10.34;64.50;98508.13;4957064;28;20034;-91
2022/02/22 07:12:35;;;;;;;38.85;31.33;;;;;;;10.40;64.29;98502.91;4954790;28;20018;-91
2022/02/22 07:15:02;;;;;;;35.25;29.23;;;;;;;10.47;64.45;98497.63;4938898;29;20030;-91
2022/02/22 07:17:27;;;;;;;34.20;27.83;;;;;;;9.79;64.29;98389.59;4953370;28;20027;-91
2022/02/22 07:19:54;;;;;;;34.42;28.20;;;;;;;10.17;64.58;98452.28;4948515;28;20042;-91
2022/02/22 07:22:21;;;;;;;37.25;30.23;;;;;;;10.61;64.05;98501.06;4950595;28;20070;-91
2022/02/22 07:24:46;;;;;;;36.63;29.17;;;;;;;10.63;63.97;98518.34;4949867;28;20034;-92
2022/02/22 07:27:12;;;;;;;36.78;29.90;;;;;;;10.56;63.77;98485.84;4953244;28;20031;-93
2022/02/22 07:29:37;;;;;;;48.63;31.48;;;;;;;9.82;63.63;98352.28;4957044;28;20023;-91
2022/02/22 07:32:03;;;;;;;38.85;30.98;;;;;;;10.73;63.60;98494.16;4968948;28;20161;-91
2022/02/22 07:34:29;;;;;;;41.38;32.83;;;;;;;10.03;63.18;98359.19;4959151;28;20106;-91
2022/02/22 07:36:54;;;;;;;40.22;31.30;;;;;;;10.08;62.93;98348.00;4953351;28;20035;-92
2022/02/22 07:39:19;;;;;;;33.00;28.23;;;;;;;10.59;62.95;98419.47;4955568;28;20031;-93
2022/02/22 07:41:45;;;;;;;29.00;25.05;;;;;;;10.43;62.60;98402.22;4955433;28;20428;-92
2022/02/22 07:44:10;;;;;;;37.13;28.05;;;;;;;10.86;63.24;98465.09;4955046;28;20412;-91
2022/02/22 07:46:36;;;;;;;36.13;28.98;;;;;;;9.61;63.18;98262.03;4954799;28;20038;-91
2022/02/22 07:49:02;;;;;;;36.47;27.88;;;;;;;10.84;63.00;98451.28;4948607;28;20125;-91
2022/02/22 07:51:28;;;;;;;36.47;26.05;;;;;;;10.68;62.57;98425.31;4952607;28;20526;-91
2022/02/22 07:53:54;;;;;;;34.65;25.52;;;;;;;11.25;62.70;98506.47;4956637;28;20026;-91
2022/02/22 07:56:20;;;;;;;34.50;26.27;;;;;;;10.64;62.77;98432.84;4955085;28;20019;-91
2022/02/22 07:58:46;;;;;;;30.33;24.20;;;;;;;10.69;63.10;98427.75;4948987;28;20030;-90
2022/02/22 08:01:11;;;;;;;29.67;24.35;;;;;;;11.18;62.73;98479.28;4955224;28;20031;-91
2022/02/22 08:03:38;;;;;;;27.67;23.90;;;;;;;11.38;62.99;98482.66;4945783;28;20492;-92
2022/02/22 08:06:04;;;;;;;30.55;25.02;;;;;;;10.57;62.74;98365.25;4974168;28;20041;-92
2022/02/22 08:08:29;;;;;;;35.13;27.00;;;;;;;10.92;61.77;98397.44;4952564;29;20102;-92
2022/02/22 08:10:55;;;;;;;31.05;24.45;;;;;;;10.98;62.46;98391.31;4950493;28;20038;-92
2022/02/22 08:13:20;;;;;;;29.88;23.80;;;;;;;11.73;62.60;98493.69;4956382;28;20019;-93
2022/02/22 08:15:47;;;;;;;28.77;22.23;;;;;;;11.77;62.03;98483.50;4956883;28;20015;-92
2022/02/22 08:18:12;;;;;;;29.83;21.98;;;;;;;11.28;61.89;98400.38;4956558;28;20110;-90
2022/02/22 08:20:41;;;;;;;26.38;22.90;;;;;;;11.20;62.07;98376.84;4955207;28;20483;-90
2022/02/22 08:23:07;;;;;;;28.40;22.30;;;;;;;12.01;61.90;98503.16;4954399;28;20050;-91
2022/02/22 08:25:33;;;;;;;25.85;22.23;;;;;;;11.79;61.91;98455.03;4951206;28;20019;-92
2022/02/22 08:27:59;;;;;;;29.42;24.63;;;;;;;11.84;61.81;98452.56;4955523;28;20031;-90
2022/02/22 08:30:24;;;;;;;28.08;23.90;;;;;;;11.82;61.70;98461.75;4955452;28;20058;-90
2022/02/22 08:32:50;;;;;;;30.58;25.00;;;;;;;11.13;61.51;98337.22;4959742;28;20031;-92
2022/02/22 08:35:15;;;;;;;25.35;21.88;;;;;;;12.07;61.26;98481.97;4960876;28;20031;-91
2022/02/22 08:37:40;;;;;;;26.65;20.98;;;;;;;11.36;61.20;98364.97;4960536;28;20027;-92
2022/02/22 08:40:07;;;;;;;24.90;22.27;;;;;;;12.01;60.72;98451.06;4957487;28;20555;-92
2022/02/22 08:42:32;;;;;;;23.88;21.20;;;;;;;12.41;61.02;98499.22;4973191;28;20085;-90
2022/02/22 08:44:58;;;;;;;27.85;20.52;;;;;;;11.37;61.03;98375.31;4979659;28;20043;-91
2022/02/22 08:47:23;;;;;;;24.98;20.85;;;;;;;11.41;61.20;98338.72;4978683;28;20042;-89
2022/02/22 08:49:49;;;;;;;32.05;22.63;;;;;;;11.57;61.15;98392.91;4985088;28;20054;-90
2022/02/22 08:52:17;;;;;;;29.10;23.77;;;;;;;12.13;61.14;98468.91;4968082;28;20031;-91
2022/02/22 08:54:43;;;;;;;30.73;24.60;;;;;;;11.28;61.21;98341.44;4969755;28;20573;-94
2022/02/22 08:57:09;;;;;;;27.45;21.52;;;;;;;10.90;61.11;98262.16;4959012;28;20023;-90
2022/02/22 08:59:34;;;;;;;25.75;21.73;;;;;;;11.12;60.93;98295.16;4956961;28;20501;-91
2022/02/22 09:02:00;;;;;;;27.63;21.23;;;;;;;11.30;60.98;98326.19;4956605;28;20035;-92
2022/02/22 09:04:26;;;;;;;33.35;23.48;;;;;;;12.45;60.73;98486.38;4955764;28;20105;-92
2022/02/22 09:06:51;;;;;;;26.23;20.85;;;;;;;11.61;61.08;98342.03;4952695;29;20118;-89
2022/02/22 09:09:17;;;;;;;27.45;23.90;;;;;;;12.47;60.61;98471.09;4941073;28;20063;-91
2022/02/22 09:11:43;;;;;;;31.75;22.88;;;;;;;12.02;60.73;98401.63;4952035;28;20086;-90
2022/02/22 09:14:08;;;;;;;29.00;23.17;;;;;;;11.87;60.11;98369.34;4961196;28;20053;-92
2022/02/22 09:16:34;;;;;;;29.58;22.90;;;;;;;12.41;60.34;98450.78;4985893;28;20050;-92
2022/02/22 09:18:59;;;;;;;31.23;23.88;;;;;;;12.05;60.09;98383.47;4969944;28;20027;-91
2022/02/22 09:21:26;;;;;;;30.55;23.65;;;;;;;12.50;60.08;98433.59;4966241;28;20043;-90
2022/02/22 09:23:51;;;;;;;34.65;24.20;;;;;;;12.27;59.79;98378.59;4971486;28;20027;-92
2022/02/22 09:26:17;;;;;;;26.70;23.60;;;;;;;12.66;59.71;98413.72;4967660;28;20092;-90
2022/02/22 09:28:45;;;;;;;28.98;23.90;;;;;;;12.43;59.32;98348.13;4966680;28;20035;-90
2022/02/22 09:31:10;;;;;;;29.40;22.98;;;;;;;11.90;59.10;98279.84;4959095;28;20025;-90
2022/02/22 09:33:36;;;;;;;30.40;22.10;;;;;;;13.20;59.22;98439.44;4956155;28;20027;-89
2022/02/22 09:36:01;;;;;;;31.88;23.70;;;;;;;12.74;58.74;98365.75;4957760;28;20467;-90
2022/02/22 09:38:27;;;;;;;30.38;23.83;;;;;;;12.89;58.68;98371.50;4957594;28;20021;-90
2022/02/22 09:40:52;;;;;;;30.33;22.33;;;;;;;13.08;58.06;98372.28;4952072;28;20030;-91
2022/02/22 09:43:18;;;;;;;29.02;24.58;;;;;;;13.31;58.13;98377.72;4957493;28;20085;-90
2022/02/22 09:45:44;;;;;;;26.27;22.70;;;;;;;12.93;57.62;98300.31;4958145;28;20031;-90
2022/02/22 09:48:10;;;;;;;27.48;24.48;;;;;;;13.57;57.42;98394.34;4959045;28;20031;-90
2022/02/22 09:50:36;;;;;;;26.90;22.08;;;;;;;12.96;57.00;98266.25;4955759;28;20029;-90
2022/02/22 09:53:03;;;;;;;30.40;22.92;;;;;;;14.28;56.86;98443.94;4958821;28;20015;-90
2022/02/22 09:55:29;;;;;;;28.77;22.73;;;;;;;13.96;56.93;98420.28;4955810;28;20042;-91
2022/02/22 09:57:55;;;;;;;28.05;22.35;;;;;;;14.11;56.94;98461.53;4958874;28;20070;-89
2022/02/22 10:00:27;;;;;;;28.05;23.65;;;;;;;13.85;56.95;98393.72;4958976;28;20500;-90
2022/02/22 10:02:53;;;;;;;30.13;22.50;;;;;;;14.16;57.18;98446.56;4958314;28;20038;-90
2022/02/22 10:05:19;;;;;;;31.10;24.38;;;;;;;14.22;57.04;98440.34;4956855;28;20034;-90
2022/02/22 10:07:47;;;;;;;31.88;24.73;;;;;;;13.71;56.68;98373.75;4958971;28;20558;-90
2022/02/22 10:10:13;;;;;;;27.60;21.25;;;;;;;13.60;57.11;98343.50;4957248;28;20054;-90
2022/02/22 10:12:39;;;;;;;24.50;18.90;;;;;;;14.11;57.08;98427.81;4956938;28;20069;-90
2022/02/22 10:15:07;;;;;;;24.13;20.92;;;;;;;13.86;56.76;98377.59;4956206;28;20077;-90
2022/02/22 10:17:51;;;;;;;26.60;20.65;;;;;;;14.12;57.25;98433.94;4953813;28;20023;-90
2022/02/22 10:20:16;;;;;;;23.33;19.77;;;;;;;14.26;57.26;98435.38;4957465;28;20031;-90
2022/02/22 10:22:53;;;;;;;27.60;21.52;;;;;;;14.28;57.13;98438.63;4951399;28;20057;-91
2022/02/22 10:25:20;;;;;;;26.38;19.80;;;;;;;14.29;57.21;98442.88;4953083;28;20030;-91
2022/02/22 10:27:50;;;;;;;25.05;21.67;;;;;;;14.37;57.33;98445.22;4957383;28;20098;-91
2022/02/22 10:30:32;;;;;;;24.98;22.27;;;;;;;14.49;57.19;98440.75;4938761;29;20030;-90
2022/02/22 10:32:58;;;;;;;34.55;29.45;;;;;;;13.78;56.78;98330.16;4958165;28;20034;-87
2022/02/22 10:35:32;;;;;;;25.83;21.05;;;;;;;14.64;56.40;98442.94;4952130;29;20031;-86
2022/02/22 10:37:58;;;;;;;27.45;22.38;;;;;;;14.66;56.56;98427.59;4954903;29;20034;-86
2022/02/22 10:40:30;;;;;;;24.85;19.23;;;;;;;14.70;56.60;98433.25;4951718;28;20023;-86
2022/02/22 10:42:57;;;;;;;25.88;21.52;;;;;;;14.29;56.63;98369.34;4970205;28;20057;-88
2022/02/22 10:45:24;;;;;;;29.98;25.52;;;;;;;14.12;57.00;98399.44;4952586;28;20066;-88
2022/02/22 10:47:50;;;;;;;36.45;27.05;;;;;;;14.27;56.90;98402.50;4969977;28;20029;-88
2022/02/22 10:50:23;;;;;;;27.02;22.92;;;;;;;13.07;56.95;98195.78;4957730;28;20034;-88
2022/02/22 10:52:48;;;;;;;34.85;23.13;;;;;;;14.13;56.96;98353.31;4956046;28;20058;-88
2022/02/22 10:55:14;;;;;;;42.10;36.42;;;;;;;13.80;56.84;98309.53;4955548;28;20057;-89
2022/02/22 10:57:40;;;;;;;48.15;39.47;;;;;;;14.39;56.91;98403.31;4955168;28;20042;-87
2022/02/22 11:00:06;;;;;;;41.40;36.13;;;;;;;14.55;56.86;98383.25;4954500;28;20041;-88
2022/02/22 11:02:32;;;;;;;41.35;35.90;;;;;;;14.56;56.97;98390.97;4955885;28;20026;-88
2022/02/22 11:04:58;;;;;;;38.22;31.58;;;;;;;14.55;56.90;98376.06;4954465;28;20037;-88
2022/02/22 11:07:26;;;;;;;48.65;37.60;;;;;;;14.91;56.52;98427.38;4964549;28;20393;-87
2022/02/22 11:09:52;;;;;;;36.08;29.25;;;;;;;14.24;56.59;98325.94;4949869;28;20035;-87
2022/02/22 11:12:23;;;;;;;37.38;29.15;;;;;;;14.54;56.38;98363.84;4956777;28;20030;-88
2022/02/22 11:14:49;;;;;;;27.17;23.87;;;;;;;14.52;56.38;98344.66;4956147;28;20035;-88
2022/02/22 11:17:23;;;;;;;24.08;20.30;;;;;;;14.79;56.05;98374.19;4955080;28;20353;-87